createdAt,value
2023-04-20T00:00:19.073Z,96887.84
2023-04-20T00:02:46.841Z,96882.13
2023-04-20T00:05:14.598Z,96883.25
2023-04-20T00:07:42.278Z,96879.38
2023-04-20T00:10:11.411Z,96883.84
2023-04-20T00:12:39.026Z,96865.41
2023-04-20T00:15:07.864Z,96863.50
2023-04-20T00:17:36.911Z,96855.91
2023-04-20T00:20:05.668Z,96852.06
2023-04-20T00:22:33.404Z,96841.66
2023-04-20T00:25:01.058Z,96839.78
2023-04-20T00:27:30.077Z,96848.03
2023-04-20T00:29:57.721Z,96845.81
2023-04-20T00:32:25.407Z,96840.19
2023-04-20T00:34:52.993Z,96845.63
2023-04-20T00:37:20.558Z,96829.59
2023-04-20T00:39:48.215Z,96828.81
2023-04-20T00:42:15.955Z,96818.09
2023-04-20T00:44:44.946Z,96816.94
2023-04-20T00:47:12.760Z,96812.28
2023-04-20T00:49:40.729Z,96816.16
2023-04-20T00:52:09.161Z,96814.59
2023-04-20T00:54:36.954Z,96814.34
2023-04-20T00:57:05.390Z,96819.25
2023-04-20T00:59:33.066Z,96811.22
2023-04-20T01:02:02.321Z,96815.41
2023-04-20T01:04:30.189Z,96809.31
2023-04-20T01:06:57.991Z,96807.03
2023-04-20T01:09:25.666Z,96811.25
2023-04-20T01:11:53.414Z,96806.31
2023-04-20T01:14:21.070Z,96812.25
2023-04-20T01:16:48.761Z,96812.25
2023-04-20T01:19:17.987Z,96810.47
2023-04-20T01:21:45.814Z,96798.25
2023-04-20T01:24:14.992Z,96802.06
2023-04-20T01:26:42.621Z,96809.72
2023-04-20T01:29:10.405Z,96803.66
2023-04-20T01:31:38.116Z,96789.06
2023-04-20T01:34:05.781Z,96787.94
2023-04-20T01:36:33.446Z,96790.28
2023-04-20T01:39:01.176Z,96790.25
2023-04-20T01:41:30.286Z,96794.34
2023-04-20T01:43:57.969Z,96786.28
2023-04-20T01:46:25.824Z,96781.00
2023-04-20T01:48:53.580Z,96786.69
2023-04-20T01:51:21.449Z,96785.41
2023-04-20T01:53:49.171Z,96782.03
2023-04-20T01:56:16.855Z,96787.69
2023-04-20T01:58:45.867Z,96779.25
2023-04-20T02:01:13.599Z,96778.28
2023-04-20T02:03:41.534Z,96778.94
2023-04-20T02:06:09.679Z,96779.25
2023-04-20T02:08:37.595Z,96776.03
2023-04-20T02:11:05.528Z,96776.13
2023-04-20T02:13:33.183Z,96783.09
2023-04-20T02:16:02.180Z,96779.50
2023-04-20T02:18:29.853Z,96771.50
2023-04-20T02:20:57.588Z,96771.75
2023-04-20T02:23:26.370Z,96767.31
2023-04-20T02:25:54.227Z,96763.53
2023-04-20T02:28:22.153Z,96765.41
2023-04-20T02:30:49.876Z,96762.38
2023-04-20T02:33:18.949Z,96761.22
2023-04-20T02:35:46.755Z,96758.94
2023-04-20T02:38:14.786Z,96756.66
2023-04-20T02:40:42.481Z,96758.94
2023-04-20T02:43:10.313Z,96754.38
2023-04-20T02:45:37.929Z,96753.19
2023-04-20T02:48:06.249Z,96755.06
2023-04-20T02:50:35.318Z,96755.84
2023-04-20T02:53:03.052Z,96760.38
2023-04-20T02:55:30.743Z,96761.34
2023-04-20T02:57:58.364Z,96765.06
2023-04-20T03:00:26.250Z,96763.47
2023-04-20T03:02:53.968Z,96758.53
2023-04-20T03:05:21.899Z,96759.31
2023-04-20T03:07:50.895Z,96759.53
2023-04-20T03:10:18.669Z,96756.91
2023-04-20T03:12:47.402Z,96751.56
2023-04-20T03:15:15.134Z,96755.41
2023-04-20T03:17:42.881Z,96752.38
2023-04-20T03:20:12.112Z,96750.53
2023-04-20T03:22:39.685Z,96754.75
2023-04-20T03:25:09.087Z,96754.16
2023-04-20T03:27:36.739Z,96745.41
2023-04-20T03:30:05.432Z,96751.88
2023-04-20T03:32:33.177Z,96744.59
2023-04-20T03:35:00.954Z,96749.88
2023-04-20T03:37:28.724Z,96738.69
2023-04-20T03:39:56.505Z,96746.09
2023-04-20T03:42:25.636Z,96738.47
2023-04-20T03:44:53.296Z,96745.66
2023-04-20T03:47:20.946Z,96748.38
2023-04-20T03:49:48.534Z,96750.06
2023-04-20T03:52:16.366Z,96746.84
2023-04-20T03:54:43.959Z,96737.81
2023-04-20T03:57:11.646Z,96750.75
2023-04-20T03:59:40.631Z,96741.53
2023-04-20T04:02:08.396Z,96746.78
2023-04-20T04:04:36.252Z,96749.72
2023-04-20T04:07:03.980Z,96740.28
2023-04-20T04:09:31.568Z,96745.50
2023-04-20T04:11:59.255Z,96735.00
2023-04-20T04:14:26.948Z,96741.22
2023-04-20T04:16:55.925Z,96738.13
2023-04-20T04:19:23.655Z,96734.78
2023-04-20T04:21:51.363Z,96733.50
2023-04-20T04:24:19.112Z,96735.06
2023-04-20T04:26:46.874Z,96732.69
2023-04-20T04:29:14.527Z,96741.69
2023-04-20T04:31:42.217Z,96741.03
2023-04-20T04:34:11.482Z,96742.38
2023-04-20T04:36:39.228Z,96742.34
2023-04-20T04:39:06.914Z,96734.13
2023-04-20T04:41:34.580Z,96743.00
2023-04-20T04:44:02.143Z,96728.19
2023-04-20T04:46:29.779Z,96737.41
2023-04-20T04:48:57.535Z,96738.59
2023-04-20T04:51:26.638Z,96735.06
2023-04-20T04:53:54.310Z,96736.63
2023-04-20T04:56:22.416Z,96736.59
2023-04-20T04:58:50.047Z,96738.09
2023-04-20T05:01:17.723Z,96736.66
2023-04-20T05:03:45.549Z,96733.16
2023-04-20T05:06:13.426Z,96740.97
2023-04-20T05:08:42.447Z,96745.00
2023-04-20T05:11:10.260Z,96746.38
2023-04-20T05:13:37.865Z,96747.28
2023-04-20T05:16:05.819Z,96740.47
2023-04-20T05:18:33.605Z,96745.91
2023-04-20T05:21:02.037Z,96742.88
2023-04-20T05:23:29.664Z,96740.09
2023-04-20T05:25:58.768Z,96738.50
2023-04-20T05:28:26.338Z,96739.50
2023-04-20T05:30:53.952Z,96735.00
2023-04-20T05:33:22.085Z,96739.06
2023-04-20T05:35:49.667Z,96728.97
2023-04-20T05:38:17.395Z,96730.44
2023-04-20T05:40:45.069Z,96723.53
2023-04-20T05:43:14.165Z,96729.16
2023-04-20T05:45:41.790Z,96725.88
2023-04-20T05:48:09.477Z,96725.28
2023-04-20T05:50:37.102Z,96726.00
2023-04-20T05:53:04.678Z,96721.28
2023-04-20T05:55:32.424Z,96725.50
2023-04-20T05:58:00.252Z,96734.00
2023-04-20T06:00:29.269Z,96733.28
2023-04-20T06:02:56.987Z,96727.72
2023-04-20T06:05:24.699Z,96734.00
2023-04-20T06:07:52.328Z,96730.22
2023-04-20T06:10:20.309Z,96734.97
2023-04-20T06:12:48.215Z,96728.91
2023-04-20T06:15:16.001Z,96734.81
2023-04-20T06:17:44.975Z,96730.69
2023-04-20T06:20:12.732Z,96722.88
2023-04-20T06:22:43.255Z,96733.66
2023-04-20T06:25:11.194Z,96726.47
2023-04-20T06:27:39.343Z,96717.41
2023-04-20T06:30:08.025Z,96713.72
2023-04-20T06:32:36.031Z,96719.09
2023-04-20T06:35:09.061Z,96721.41
2023-04-20T06:37:36.977Z,96723.38
2023-04-20T06:40:06.138Z,96728.34
2023-04-20T06:42:33.887Z,96722.25
2023-04-20T06:45:01.527Z,96719.47
2023-04-20T06:47:29.174Z,96724.88
2023-04-20T06:49:56.872Z,96724.47
2023-04-20T06:52:26.178Z,96728.31
2023-04-20T06:54:53.851Z,96709.63
2023-04-20T06:57:21.414Z,96703.22
2023-04-20T06:59:48.967Z,96702.81
2023-04-20T07:02:16.661Z,96699.44
2023-04-20T07:04:44.409Z,96699.78
2023-04-20T07:07:12.071Z,96693.31
2023-04-20T07:09:42.644Z,96687.16
2023-04-20T07:12:10.325Z,96688.34
2023-04-20T07:14:38.417Z,96692.94
2023-04-20T07:17:06.108Z,96695.19
2023-04-20T07:19:33.684Z,96695.59
2023-04-20T07:22:01.314Z,96700.38
2023-04-20T07:24:29.034Z,96705.28
2023-04-20T07:26:58.277Z,96697.88
2023-04-20T07:29:25.977Z,96700.53
2023-04-20T07:31:53.700Z,96705.25
2023-04-20T07:34:21.449Z,96703.47
2023-04-20T07:36:49.087Z,96708.81
2023-04-20T07:39:16.993Z,96704.19
2023-04-20T07:41:45.029Z,96701.22
2023-04-20T07:44:14.687Z,96706.53
2023-04-20T07:46:42.411Z,96698.94
2023-04-20T07:49:10.136Z,96700.97
2023-04-20T07:51:37.917Z,96706.97
2023-04-20T07:54:05.799Z,96702.84
2023-04-20T07:56:33.469Z,96703.94
2023-04-20T07:59:01.140Z,96705.25
2023-04-20T08:01:30.220Z,96704.06
2023-04-20T08:03:58.023Z,96700.47
2023-04-20T08:06:26.391Z,96710.97
2023-04-20T08:08:54.005Z,96701.94
2023-04-20T08:11:21.709Z,96701.50
2023-04-20T08:13:49.397Z,96696.97
2023-04-20T08:16:17.060Z,96693.66
2023-04-20T08:18:46.093Z,96694.50
2023-04-20T08:21:13.785Z,96701.56
2023-04-20T08:23:41.468Z,96693.25
2023-04-20T08:26:09.068Z,96705.16
2023-04-20T08:28:36.693Z,96709.59
2023-04-20T08:31:04.579Z,96705.28
2023-04-20T08:33:32.182Z,96706.22
2023-04-20T08:36:01.293Z,96712.91
2023-04-20T08:38:34.057Z,96714.94
2023-04-20T08:41:02.854Z,96711.72
2023-04-20T08:43:31.329Z,96723.28
2023-04-20T08:46:00.944Z,96721.03
2023-04-20T08:48:35.269Z,96717.28
2023-04-20T08:51:05.523Z,96707.44
2023-04-20T08:53:33.275Z,96709.31
2023-04-20T08:56:01.102Z,96709.16
2023-04-20T08:58:31.932Z,96705.69
2023-04-20T09:00:59.657Z,96717.88
2023-04-20T09:03:34.209Z,96719.22
2023-04-20T09:06:03.993Z,96723.28
2023-04-20T09:08:36.703Z,96717.91
2023-04-20T09:11:04.373Z,96724.38
2023-04-20T09:13:32.349Z,96723.75
2023-04-20T09:16:10.221Z,96727.91
2023-04-20T09:18:38.432Z,96731.13
2023-04-20T09:21:11.019Z,96727.16
2023-04-20T09:23:38.707Z,96718.31
2023-04-20T09:26:06.400Z,96723.78
2023-04-20T09:28:37.750Z,96725.00
2023-04-20T09:31:05.613Z,96721.25
2023-04-20T09:33:33.291Z,96727.13
2023-04-20T09:36:05.384Z,96725.09
2023-04-20T09:38:34.356Z,96732.88
2023-04-20T09:41:02.485Z,96729.44
2023-04-20T09:43:30.098Z,96735.94
2023-04-20T09:45:58.915Z,96731.81
2023-04-20T09:48:26.746Z,96723.41
2023-04-20T09:50:56.132Z,96729.84
2023-04-20T09:53:24.770Z,96728.69
2023-04-20T09:55:53.922Z,96726.34
2023-04-20T09:58:21.844Z,96718.88
2023-04-20T10:00:50.234Z,96723.56
2023-04-20T10:03:18.900Z,96726.59
2023-04-20T10:05:46.934Z,96725.59
2023-04-20T10:08:14.638Z,96730.28
2023-04-20T10:10:47.469Z,96728.41
2023-04-20T10:13:16.916Z,96724.47
2023-04-20T10:15:44.660Z,96720.16
2023-04-20T10:18:21.429Z,96731.25
2023-04-20T10:20:49.830Z,96730.53
2023-04-20T10:23:17.765Z,96731.47
2023-04-20T10:25:56.552Z,96735.75
2023-04-20T10:28:25.732Z,96731.50
2023-04-20T10:30:53.871Z,96735.97
2023-04-20T10:33:21.545Z,96732.75
2023-04-20T10:35:50.916Z,96728.09
2023-04-20T10:38:28.824Z,96728.47
2023-04-20T10:40:57.026Z,96726.09
2023-04-20T10:43:25.982Z,96727.25
2023-04-20T10:45:53.721Z,96718.28
2023-04-20T10:48:21.730Z,96714.84
2023-04-20T10:50:49.588Z,96716.34
2023-04-20T10:53:18.883Z,96717.31
2023-04-20T10:55:46.767Z,96711.94
2023-04-20T10:58:21.997Z,96709.06
2023-04-20T11:00:59.434Z,96706.44
2023-04-20T11:03:28.799Z,96698.50
2023-04-20T11:05:56.779Z,96711.34
2023-04-20T11:08:35.086Z,96692.31
2023-04-20T11:11:02.826Z,96693.53
2023-04-20T11:13:30.527Z,96702.31
2023-04-20T11:15:59.649Z,96703.34
2023-04-20T11:18:27.392Z,96707.56
2023-04-20T11:20:55.729Z,96708.13
2023-04-20T11:23:24.898Z,96718.81
2023-04-20T11:25:54.128Z,96712.13
2023-04-20T11:28:23.151Z,96709.53
2023-04-20T11:30:51.070Z,96712.75
2023-04-20T11:33:26.665Z,96709.44
2023-04-20T11:35:55.946Z,96709.72
2023-04-20T11:38:28.123Z,96697.63
2023-04-20T11:40:57.761Z,96693.78
2023-04-20T11:43:25.442Z,96684.03
2023-04-20T11:45:53.167Z,96687.34
2023-04-20T11:48:21.003Z,96690.44
2023-04-20T11:50:50.164Z,96695.28
2023-04-20T11:53:17.872Z,96693.47
2023-04-20T11:55:45.569Z,96698.53
2023-04-20T11:58:13.255Z,96695.38
2023-04-20T12:00:40.964Z,96703.88
2023-04-20T12:03:08.804Z,96706.31
2023-04-20T12:05:36.803Z,96706.09
2023-04-20T12:08:05.923Z,96712.63
2023-04-20T12:10:33.624Z,96714.06
2023-04-20T12:13:01.292Z,96716.41
2023-04-20T12:15:29.037Z,96713.59
2023-04-20T12:17:56.974Z,96719.28
2023-04-20T12:20:24.659Z,96724.41
2023-04-20T12:22:52.353Z,96729.03
2023-04-20T12:25:21.622Z,96725.94
2023-04-20T12:27:49.984Z,96727.72
2023-04-20T12:30:17.677Z,96729.75
2023-04-20T12:32:45.419Z,96733.69
2023-04-20T12:35:13.246Z,96734.03
2023-04-20T12:37:40.844Z,96741.41
2023-04-20T12:40:09.307Z,96748.81
2023-04-20T12:42:38.258Z,96746.81
2023-04-20T12:45:06.964Z,96744.19
2023-04-20T12:47:34.580Z,96747.63
2023-04-20T12:50:02.225Z,96748.94
2023-04-20T12:52:29.873Z,96755.00
2023-04-20T12:54:57.585Z,96751.66
2023-04-20T12:57:25.545Z,96756.31
2023-04-20T12:59:54.652Z,96764.66
2023-04-20T13:02:22.522Z,96773.88
2023-04-20T13:04:50.419Z,96766.84
2023-04-20T13:07:18.424Z,96774.84
2023-04-20T13:09:46.069Z,96777.91
2023-04-20T13:12:13.637Z,96774.75
2023-04-20T13:14:41.324Z,96780.53
2023-04-20T13:17:10.521Z,96784.94
2023-04-20T13:19:38.196Z,96795.44
2023-04-20T13:22:05.948Z,96791.06
2023-04-20T13:24:33.640Z,96796.94
2023-04-20T13:27:01.364Z,96791.91
2023-04-20T13:29:29.045Z,96794.13
2023-04-20T13:31:56.695Z,96787.69
2023-04-20T13:34:25.829Z,96796.16
2023-04-20T13:36:53.761Z,96796.78
2023-04-20T13:39:21.437Z,96799.84
2023-04-20T13:41:49.084Z,96801.06
2023-04-20T13:44:16.977Z,96809.56
2023-04-20T13:46:46.878Z,96810.22
2023-04-20T13:49:14.556Z,96814.81
2023-04-20T13:51:43.582Z,96821.25
2023-04-20T13:54:11.269Z,96822.78
2023-04-20T13:56:39.032Z,96815.44
2023-04-20T13:59:06.692Z,96815.50
2023-04-20T14:01:34.671Z,96806.44
2023-04-20T14:04:02.394Z,96810.53
2023-04-20T14:06:30.109Z,96809.19
2023-04-20T14:08:59.201Z,96799.06
2023-04-20T14:11:26.866Z,96803.75
2023-04-20T14:13:54.688Z,96812.31
2023-04-20T14:16:22.534Z,96810.06
2023-04-20T14:18:50.222Z,96812.19
2023-04-20T14:21:17.950Z,96809.94
2023-04-20T14:23:45.654Z,96817.16
2023-04-20T14:26:14.629Z,96814.94
2023-04-20T14:28:42.980Z,96812.84
2023-04-20T14:31:10.749Z,96813.81
2023-04-20T14:33:38.401Z,96815.81
2023-04-20T14:36:06.654Z,96812.47
2023-04-20T14:38:34.318Z,96806.19
2023-04-20T14:41:02.080Z,96813.34
2023-04-20T14:43:31.170Z,96803.28
2023-04-20T14:45:58.931Z,96803.53
2023-04-20T14:48:26.812Z,96801.72
2023-04-20T14:50:54.474Z,96800.44
2023-04-20T14:53:22.758Z,96795.56
2023-04-20T14:55:50.427Z,96790.03
2023-04-20T14:58:19.402Z,96794.69
2023-04-20T15:00:48.517Z,96789.25
2023-04-20T15:03:16.815Z,96790.28
2023-04-20T15:05:45.388Z,96795.94
2023-04-20T15:08:13.461Z,96795.72
2023-04-20T15:10:41.350Z,96791.63
2023-04-20T15:13:09.083Z,96792.91
2023-04-20T15:15:47.646Z,96795.38
2023-04-20T15:18:18.076Z,96791.22
2023-04-20T15:20:46.176Z,96794.50
2023-04-20T15:23:13.953Z,96795.63
2023-04-20T15:25:41.710Z,96793.38
2023-04-20T15:28:09.472Z,96789.19
2023-04-20T15:30:37.155Z,96785.47
2023-04-20T15:33:05.317Z,96797.81
2023-04-20T15:35:35.039Z,96797.59
2023-04-20T15:38:03.341Z,96806.41
2023-04-20T15:40:30.950Z,96805.34
2023-04-20T15:42:58.495Z,96804.50
2023-04-20T15:45:26.176Z,96806.72
2023-04-20T15:47:53.819Z,96793.47
2023-04-20T15:50:21.623Z,96800.00
2023-04-20T15:52:50.764Z,96801.38
2023-04-20T15:55:18.438Z,96805.88
2023-04-20T15:57:46.014Z,96806.53
2023-04-20T16:00:14.563Z,96805.59
2023-04-20T16:02:42.389Z,96808.66
2023-04-20T16:05:10.372Z,96802.69
2023-04-20T16:07:38.027Z,96803.75
2023-04-20T16:10:08.850Z,96797.34
2023-04-20T16:12:36.694Z,96803.06
2023-04-20T16:15:05.350Z,96800.97
2023-04-20T16:17:33.254Z,96797.88
2023-04-20T16:20:00.869Z,96805.78
2023-04-20T16:22:28.530Z,96796.75
2023-04-20T16:24:56.217Z,96797.94
2023-04-20T16:27:25.271Z,96782.19
2023-04-20T16:29:52.925Z,96785.25
2023-04-20T16:32:20.490Z,96788.78
2023-04-20T16:34:48.068Z,96787.22
2023-04-20T16:37:15.981Z,96788.19
2023-04-20T16:39:43.664Z,96782.06
2023-04-20T16:42:11.261Z,96781.81
2023-04-20T16:44:41.825Z,96777.53
2023-04-20T16:47:09.714Z,96778.44
2023-04-20T16:49:37.414Z,96774.16
2023-04-20T16:52:05.037Z,96779.53
2023-04-20T16:54:32.641Z,96782.34
2023-04-20T16:57:00.290Z,96779.72
2023-04-20T16:59:28.022Z,96787.03
2023-04-20T17:01:56.968Z,96779.03
2023-04-20T17:04:24.773Z,96782.72
2023-04-20T17:06:52.473Z,96777.75
2023-04-20T17:09:20.238Z,96772.13
2023-04-20T17:11:47.794Z,96774.06
2023-04-20T17:14:15.582Z,96784.44
2023-04-20T17:16:43.297Z,96773.00
2023-04-20T17:19:12.306Z,96780.19
2023-04-20T17:21:40.074Z,96780.16
2023-04-20T17:24:07.627Z,96771.88
2023-04-20T17:26:35.191Z,96768.88
2023-04-20T17:29:03.005Z,96772.66
2023-04-20T17:31:30.740Z,96774.72
2023-04-20T17:33:58.313Z,96780.41
2023-04-20T17:36:27.263Z,96779.84
2023-04-20T17:38:54.827Z,96784.75
2023-04-20T17:41:22.488Z,96788.91
2023-04-20T17:43:50.738Z,96781.03
2023-04-20T17:46:18.431Z,96782.59
2023-04-20T17:48:46.103Z,96781.56
2023-04-20T17:51:13.877Z,96782.72
2023-04-20T17:53:42.905Z,96784.28
2023-04-20T17:56:10.503Z,96783.78
2023-04-20T17:58:38.169Z,96792.00
2023-04-20T18:01:05.842Z,96794.44
2023-04-20T18:03:34.334Z,96794.69
2023-04-20T18:06:02.059Z,96789.34
2023-04-20T18:08:29.587Z,96793.69
2023-04-20T18:10:58.516Z,96794.13
2023-04-20T18:13:26.212Z,96786.75
2023-04-20T18:15:53.911Z,96787.56
2023-04-20T18:18:21.510Z,96789.22
2023-04-20T18:20:49.321Z,96782.97
2023-04-20T18:23:16.950Z,96786.66
2023-04-20T18:25:44.582Z,96798.56
2023-04-20T18:28:13.669Z,96787.47
2023-04-20T18:30:41.222Z,96789.25
2023-04-20T18:33:08.973Z,96788.63
2023-04-20T18:35:36.694Z,96785.25
2023-04-20T18:38:04.354Z,96788.31
2023-04-20T18:40:31.991Z,96792.66
2023-04-20T18:42:59.578Z,96797.88
2023-04-20T18:45:29.482Z,96792.72
2023-04-20T18:47:57.266Z,96794.00
2023-04-20T18:50:24.968Z,96793.16
2023-04-20T18:52:52.643Z,96799.31
2023-04-20T18:55:20.630Z,96791.09
2023-04-20T18:57:48.260Z,96794.81
2023-04-20T19:00:16.435Z,96796.38
2023-04-20T19:02:45.498Z,96792.09
2023-04-20T19:05:13.291Z,96791.22
2023-04-20T19:07:41.010Z,96790.94
2023-04-20T19:10:09.748Z,96793.25
2023-04-20T19:12:37.407Z,96794.16
2023-04-20T19:15:05.717Z,96797.59
2023-04-20T19:17:34.685Z,96791.06
2023-04-20T19:20:04.484Z,96794.88
2023-04-20T19:22:32.145Z,96806.03
2023-04-20T19:24:59.777Z,96803.47
2023-04-20T19:27:27.453Z,96811.47
2023-04-20T19:29:55.112Z,96806.69
2023-04-20T19:32:23.075Z,96806.19
2023-04-20T19:34:50.795Z,96803.66
2023-04-20T19:37:20.026Z,96804.03
2023-04-20T19:39:47.891Z,96812.91
2023-04-20T19:42:15.613Z,96814.84
2023-04-20T19:44:43.224Z,96812.03
2023-04-20T19:47:11.259Z,96815.75
2023-04-20T19:49:38.986Z,96814.50
2023-04-20T19:52:06.721Z,96811.13
2023-04-20T19:54:35.706Z,96811.78
2023-04-20T19:57:03.590Z,96820.44
2023-04-20T19:59:31.136Z,96818.28
2023-04-20T20:02:00.235Z,96815.13
2023-04-20T20:04:28.220Z,96815.19
2023-04-20T20:06:55.971Z,96806.09
2023-04-20T20:09:24.312Z,96807.22
2023-04-20T20:11:53.465Z,96803.38
2023-04-20T20:14:21.078Z,96805.94
2023-04-20T20:16:48.687Z,96799.22
2023-04-20T20:19:17.128Z,96799.31
2023-04-20T20:21:44.968Z,96793.66
2023-04-20T20:24:12.521Z,96800.06
2023-04-20T20:26:40.081Z,96794.78
2023-04-20T20:29:09.048Z,96788.72
2023-04-20T20:31:36.701Z,96795.16
2023-04-20T20:34:04.349Z,96799.06
2023-04-20T20:36:31.898Z,96794.28
2023-04-20T20:38:59.413Z,96788.91
2023-04-20T20:41:27.023Z,96793.66
2023-04-20T20:43:54.649Z,96797.81
2023-04-20T20:46:23.674Z,96807.00
2023-04-20T20:48:51.335Z,96801.25
2023-04-20T20:51:19.154Z,96810.16
2023-04-20T20:53:46.801Z,96806.81
2023-04-20T20:56:14.471Z,96803.63
2023-04-20T20:58:42.130Z,96807.81
2023-04-20T21:01:09.769Z,96812.84
2023-04-20T21:03:38.908Z,96812.41
2023-04-20T21:06:06.864Z,96810.53
2023-04-20T21:08:34.704Z,96816.09
2023-04-20T21:11:02.258Z,96816.88
2023-04-20T21:13:29.906Z,96826.44
2023-04-20T21:15:57.502Z,96822.88
2023-04-20T21:18:25.153Z,96821.25
2023-04-20T21:20:54.207Z,96830.28
2023-04-20T21:23:21.822Z,96819.06
2023-04-20T21:25:49.455Z,96814.50
2023-04-20T21:28:17.082Z,96815.06
2023-04-20T21:30:44.645Z,96818.22
2023-04-20T21:33:12.305Z,96826.09
2023-04-20T21:35:39.923Z,96813.63
2023-04-20T21:38:08.858Z,96813.78
2023-04-20T21:40:36.453Z,96809.91
2023-04-20T21:43:03.997Z,96810.63
2023-04-20T21:45:31.702Z,96812.44
2023-04-20T21:47:59.590Z,96812.16
2023-04-20T21:50:27.329Z,96812.41
2023-04-20T21:52:56.176Z,96808.94
2023-04-20T21:55:25.252Z,96811.75
2023-04-20T21:57:52.870Z,96808.59
2023-04-20T22:00:20.864Z,96807.81
2023-04-20T22:02:50.255Z,96802.97
2023-04-20T22:05:18.400Z,96806.75
2023-04-20T22:07:45.930Z,96801.47
2023-04-20T22:10:13.591Z,96811.63
2023-04-20T22:12:42.819Z,96808.84
2023-04-20T22:15:12.633Z,96809.69
2023-04-20T22:17:40.932Z,96815.63
2023-04-20T22:20:10.195Z,96815.50
2023-04-20T22:22:38.743Z,96816.34
2023-04-20T22:25:08.376Z,96815.50
2023-04-20T22:27:37.171Z,96816.84
2023-04-20T22:30:07.388Z,96825.41
2023-04-20T22:32:35.090Z,96820.00
2023-04-20T22:35:03.051Z,96823.81
2023-04-20T22:37:30.597Z,96818.94
2023-04-20T22:39:58.202Z,96826.47
2023-04-20T22:42:25.815Z,96815.66
2023-04-20T22:44:53.421Z,96825.38
2023-04-20T22:47:25.433Z,96813.78
2023-04-20T22:49:53.101Z,96817.47
2023-04-20T22:52:20.755Z,96815.41
2023-04-20T22:54:48.514Z,96814.81
2023-04-20T22:57:16.514Z,96813.31
2023-04-20T22:59:44.266Z,96806.53
2023-04-20T23:02:12.026Z,96800.81
2023-04-20T23:04:40.990Z,96806.53
2023-04-20T23:07:08.599Z,96800.91
2023-04-20T23:09:36.221Z,96794.78
2023-04-20T23:12:04.327Z,96796.34
2023-04-20T23:14:31.984Z,96798.63
2023-04-20T23:16:59.738Z,96792.50
2023-04-20T23:19:27.393Z,96794.00
2023-04-20T23:21:56.349Z,96793.19
2023-04-20T23:24:24.180Z,96798.81
2023-04-20T23:26:51.899Z,96796.38
2023-04-20T23:29:19.913Z,96799.16
2023-04-20T23:31:48.979Z,96797.34
2023-04-20T23:34:16.732Z,96798.72
2023-04-20T23:36:44.486Z,96803.50
2023-04-20T23:39:13.488Z,96798.25
2023-04-20T23:41:41.137Z,96809.84
2023-04-20T23:46:36.345Z,96808.66
2023-04-20T23:49:03.949Z,96795.00
2023-04-20T23:51:31.832Z,96784.31
2023-04-20T23:53:59.486Z,96798.75
2023-04-20T23:56:28.659Z,96791.09
2023-04-20T23:58:56.234Z,96789.00
